Time;durP1;ratioP1;P1;durP2;ratioP2;P2;SDS_P1;SDS_P2;PMS_P1;PMS_P2;Temp;Humidity;BMP_temperature;BMP_pressure;BME280_temperature;BME280_humidity;BME280_pressure;Samples;Min_cycle;Max_cycle;Signal;HPM_P1;HPM_P2
2023/02/09 00:00:16;;;;;;;16.20;7.37;;;;;;;;;;5042919;28;20264;-76
2023/02/09 00:02:42;;;;;;;15.03;8.27;;;;;;;;;;5039920;28;20351;-75
2023/02/09 00:05:11;;;;;;;14.43;8.00;;;;;;;;;;5041704;28;20725;-75
2023/02/09 00:07:37;;;;;;;16.13;8.10;;;;;;;;;;5028949;28;21823;-76
2023/02/09 00:10:04;;;;;;;20.30;8.20;;;;;;;;;;5042650;28;20303;-75
2023/02/09 00:15:14;;;;;;;16.77;8.13;;;;;;;;;;5024631;28;20407;-76
2023/02/09 00:17:40;;;;;;;15.40;8.30;;;;;;;;;;5025243;28;20280;-75
2023/02/09 00:20:07;;;;;;;19.60;7.77;;;;;;;;;;5043034;28;20341;-75
2023/02/09 00:22:33;;;;;;;13.83;6.67;;;;;;;;;;5041108;28;20359;-76
2023/02/09 00:24:59;;;;;;;17.37;7.70;;;;;;;;;;5029881;28;20362;-77
2023/02/09 00:27:25;;;;;;;15.03;7.60;;;;;;;;;;5043485;28;20280;-75
2023/02/09 00:29:51;;;;;;;15.87;7.60;;;;;;;;;;5043686;28;20745;-76
2023/02/09 00:32:19;;;;;;;19.37;7.93;;;;;;;;;;5027738;28;20281;-76
2023/02/09 00:34:45;;;;;;;14.47;7.93;;;;;;;;;;5039147;28;20128;-75
2023/02/09 00:37:11;;;;;;;15.33;7.60;;;;;;;;;;5026780;28;20374;-76
2023/02/09 00:39:37;;;;;;;14.47;7.20;;;;;;;;;;5042711;28;20889;-75
2023/02/09 00:42:06;;;;;;;15.83;7.93;;;;;;;;;;5042544;28;20668;-76
2023/02/09 00:44:33;;;;;;;15.63;7.87;;;;;;;;;;5040559;28;20288;-79
2023/02/09 00:47:00;;;;;;;18.17;8.30;;;;;;;;;;5040827;28;20703;-76
2023/02/09 00:49:28;;;;;;;14.43;7.50;;;;;;;;;;5026521;28;20275;-76
2023/02/09 00:51:56;;;;;;;17.03;8.17;;;;;;;;;;5040560;28;20292;-75
2023/02/09 00:54:25;;;;;;;15.97;8.03;;;;;;;;;;5041129;28;20289;-75
2023/02/09 00:56:54;;;;;;;18.17;8.13;;;;;;;;;;5040710;28;20288;-75
2023/02/09 00:59:20;;;;;;;15.70;8.03;;;;;;;;;;5039602;28;20288;-76
2023/02/09 01:01:48;;;;;;;16.80;8.37;;;;;;;;;;5025509;28;20287;-78
2023/02/09 01:04:14;;;;;;;16.30;7.97;;;;;;;;;;5039902;28;20029;-78
2023/02/09 01:06:43;;;;;;;20.10;8.77;;;;;;;;;;5026286;28;20272;-75
2023/02/09 01:09:12;;;;;;;15.87;7.57;;;;;;;;;;5042008;28;20041;-78
2023/02/09 01:11:38;;;;;;;15.10;8.30;;;;;;;;;;5044989;28;20276;-77
2023/02/09 01:14:04;;;;;;;16.83;9.33;;;;;;;;;;5041735;28;20292;-75
2023/02/09 01:16:30;;;;;;;15.73;7.70;;;;;;;;;;5041568;28;20371;-76
2023/02/09 01:18:58;;;;;;;16.40;7.77;;;;;;;;;;5040986;28;20362;-78
2023/02/09 01:21:24;;;;;;;17.83;10.73;;;;;;;;;;5041520;28;20416;-78
2023/02/09 01:23:50;;;;;;;16.37;9.40;;;;;;;;;;5040475;28;20306;-77
2023/02/09 01:26:17;;;;;;;18.23;8.27;;;;;;;;;;5043946;28;20038;-78
2023/02/09 01:28:43;;;;;;;18.40;7.60;;;;;;;;;;5025559;28;20306;-77
2023/02/09 01:31:18;;;;;;;20.60;8.57;;;;;;;;;;5038758;28;20268;-75
2023/02/09 01:33:44;;;;;;;15.00;8.07;;;;;;;;;;5040207;28;20671;-78
2023/02/09 01:36:10;;;;;;;19.60;8.40;;;;;;;;;;5039535;28;20284;-78
2023/02/09 01:38:36;;;;;;;16.70;8.57;;;;;;;;;;5040217;28;20060;-77
2023/02/09 01:41:02;;;;;;;22.47;9.57;;;;;;;;;;5041553;28;20319;-76
2023/02/09 01:43:28;;;;;;;17.97;8.37;;;;;;;;;;5039462;28;20556;-78
2023/02/09 01:45:54;;;;;;;15.77;8.20;;;;;;;;;;5038607;28;20295;-78
2023/02/09 01:48:24;;;;;;;17.53;8.67;;;;;;;;;;5039333;28;20052;-75
2023/02/09 01:50:51;;;;;;;15.87;8.10;;;;;;;;;;5038626;28;20367;-77
2023/02/09 01:53:17;;;;;;;17.40;8.80;;;;;;;;;;5039369;28;20276;-77
2023/02/09 01:55:46;;;;;;;19.43;9.03;;;;;;;;;;5038963;28;20272;-78
2023/02/09 01:58:15;;;;;;;16.17;7.97;;;;;;;;;;5022596;28;20889;-78
2023/02/09 02:00:41;;;;;;;21.70;9.23;;;;;;;;;;5038158;28;20414;-78
2023/02/09 02:03:09;;;;;;;16.77;8.40;;;;;;;;;;5039414;28;20795;-76
2023/02/09 02:05:37;;;;;;;18.13;9.37;;;;;;;;;;5022807;28;20368;-76
2023/02/09 02:08:05;;;;;;;17.97;8.70;;;;;;;;;;5039682;28;20301;-78
2023/02/09 02:10:31;;;;;;;18.03;8.53;;;;;;;;;;5039676;28;21224;-75
2023/02/09 02:12:57;;;;;;;21.03;10.07;;;;;;;;;;5021830;28;20280;-76
2023/02/09 02:15:26;;;;;;;17.07;8.77;;;;;;;;;;5039735;28;20315;-79
2023/02/09 02:18:17;;;;;;;21.33;8.80;;;;;;;;;;5021940;28;20683;-79
2023/02/09 02:21:06;;;;;;;20.03;8.77;;;;;;;;;;5038846;28;20320;-77
2023/02/09 02:23:38;;;;;;;18.93;8.53;;;;;;;;;;5024038;28;20386;-78
2023/02/09 02:26:06;;;;;;;24.20;9.20;;;;;;;;;;5039156;28;20644;-77
2023/02/09 02:28:56;;;;;;;17.53;9.47;;;;;;;;;;5039094;28;20444;-77
2023/02/09 02:31:25;;;;;;;18.83;9.30;;;;;;;;;;5037575;28;20287;-77
2023/02/09 02:34:00;;;;;;;18.80;9.20;;;;;;;;;;5039557;28;20295;-76
2023/02/09 02:36:29;;;;;;;17.27;8.57;;;;;;;;;;5038564;28;20281;-77
2023/02/09 02:39:18;;;;;;;19.30;8.73;;;;;;;;;;5040685;28;20331;-78
2023/02/09 02:44:43;;;;;;;19.93;9.83;;;;;;;;;;5035576;28;20303;-79
2023/02/09 02:47:11;;;;;;;18.77;8.90;;;;;;;;;;5031733;28;20260;-78
2023/02/09 02:49:46;;;;;;;17.77;8.67;;;;;;;;;;5026753;28;20330;-79
2023/02/09 02:52:12;;;;;;;22.43;10.50;;;;;;;;;;5033959;28;20260;-79
2023/02/09 02:54:44;;;;;;;21.27;10.50;;;;;;;;;;5032138;28;20337;-77
2023/02/09 02:57:14;;;;;;;19.60;9.43;;;;;;;;;;5026985;28;20288;-79
2023/02/09 02:59:43;;;;;;;18.33;9.60;;;;;;;;;;5038880;28;20263;-79
2023/02/09 03:02:14;;;;;;;18.93;9.90;;;;;;;;;;5055213;28;20260;-79
2023/02/09 03:04:41;;;;;;;18.93;9.93;;;;;;;;;;5045580;28;20260;-78
2023/02/09 03:07:07;;;;;;;19.10;10.50;;;;;;;;;;5039717;28;20287;-79
2023/02/09 03:09:34;;;;;;;17.80;8.97;;;;;;;;;;5052817;28;20604;-78
2023/02/09 03:12:05;;;;;;;22.40;10.00;;;;;;;;;;5071391;28;20268;-79
2023/02/09 03:14:44;;;;;;;21.37;12.13;;;;;;;;;;5040705;28;20276;-78
2023/02/09 03:20:20;;;;;;;25.07;10.90;;;;;;;;;;5031651;28;20287;-79
2023/02/09 03:22:47;;;;;;;27.20;10.95;;;;;;;;;;5053589;28;20264;-77
2023/02/09 03:25:17;;;;;;;21.27;9.83;;;;;;;;;;5040046;28;20045;-78
2023/02/09 03:27:49;;;;;;;18.17;9.50;;;;;;;;;;5036821;28;20665;-78
2023/02/09 03:30:16;;;;;;;17.40;10.00;;;;;;;;;;5028813;28;20366;-79
2023/02/09 03:32:44;;;;;;;19.80;10.40;;;;;;;;;;5036474;28;20034;-78
2023/02/09 03:35:12;;;;;;;25.03;10.57;;;;;;;;;;5039873;28;20288;-78
2023/02/09 03:37:38;;;;;;;25.30;10.63;;;;;;;;;;5036897;28;20292;-79
2023/02/09 03:40:06;;;;;;;23.43;10.93;;;;;;;;;;5049568;28;20353;-78
2023/02/09 03:42:32;;;;;;;26.13;10.83;;;;;;;;;;5044317;28;20283;-78
2023/02/09 03:44:58;;;;;;;23.13;10.90;;;;;;;;;;5036475;28;20644;-78
2023/02/09 03:47:24;;;;;;;25.87;11.67;;;;;;;;;;5036261;28;20275;-79
2023/02/09 03:49:50;;;;;;;22.07;11.27;;;;;;;;;;5037238;28;20264;-78
2023/02/09 03:52:16;;;;;;;24.73;11.13;;;;;;;;;;5036894;28;20704;-79
2023/02/09 03:54:42;;;;;;;28.23;11.87;;;;;;;;;;5056155;28;20275;-79
2023/02/09 03:57:09;;;;;;;23.37;11.17;;;;;;;;;;5048329;28;20349;-79
2023/02/09 03:59:36;;;;;;;27.67;12.73;;;;;;;;;;5035410;28;20295;-78
2023/02/09 04:02:05;;;;;;;24.63;11.07;;;;;;;;;;5022070;28;20298;-78
2023/02/09 04:04:31;;;;;;;21.50;11.17;;;;;;;;;;5036864;28;20609;-79
2023/02/09 04:06:58;;;;;;;24.47;11.93;;;;;;;;;;5036896;28;20296;-78
2023/02/09 04:09:24;;;;;;;22.17;11.10;;;;;;;;;;5026506;28;20280;-79
2023/02/09 04:11:51;;;;;;;26.60;11.60;;;;;;;;;;5038936;28;20272;-78
2023/02/09 04:14:19;;;;;;;27.17;12.57;;;;;;;;;;5055324;28;20264;-78
2023/02/09 04:16:47;;;;;;;24.58;12.27;;;;;;;;;;5054185;28;20291;-79
2023/02/09 04:19:13;;;;;;;24.40;13.15;;;;;;;;;;5030560;28;20121;-77
2023/02/09 04:21:39;;;;;;;29.20;12.60;;;;;;;;;;5043106;28;20102;-77
2023/02/09 04:24:06;;;;;;;25.83;12.33;;;;;;;;;;5029591;28;21221;-78
2023/02/09 04:26:32;;;;;;;25.27;12.68;;;;;;;;;;5042782;28;20751;-77
2023/02/09 04:29:01;;;;;;;30.20;11.87;;;;;;;;;;5041617;28;20029;-77
2023/02/09 04:31:27;;;;;;;24.00;11.82;;;;;;;;;;5040398;28;20363;-77
2023/02/09 04:33:53;;;;;;;27.13;12.02;;;;;;;;;;5041675;28;20073;-76
2023/02/09 04:36:22;;;;;;;28.97;12.63;;;;;;;;;;5042014;28;20069;-76
2023/02/09 04:38:48;;;;;;;23.17;11.57;;;;;;;;;;5023573;28;20079;-77
2023/02/09 04:41:13;;;;;;;23.37;11.60;;;;;;;;;;5040428;28;20283;-77
2023/02/09 04:43:40;;;;;;;22.30;11.20;;;;;;;;;;5040742;28;20569;-78
2023/02/09 04:46:06;;;;;;;22.13;11.20;;;;;;;;;;5041002;28;20025;-77
2023/02/09 04:48:32;;;;;;;23.87;12.43;;;;;;;;;;5040776;28;20346;-77
2023/02/09 04:50:58;;;;;;;21.97;11.50;;;;;;;;;;5040319;28;20803;-78
2023/02/09 04:53:25;;;;;;;26.60;12.57;;;;;;;;;;5040980;28;20038;-77
2023/02/09 04:55:51;;;;;;;24.37;12.10;;;;;;;;;;5023808;28;20271;-77
2023/02/09 05:01:03;;;;;;;29.45;11.95;;;;;;;;;;5024635;28;20039;-76
2023/02/09 05:03:34;;;;;;;26.93;12.43;;;;;;;;;;5042000;28;20040;-77
2023/02/09 05:06:01;;;;;;;25.87;12.17;;;;;;;;;;5040209;28;20272;-79
2023/02/09 05:08:27;;;;;;;24.30;11.43;;;;;;;;;;5040529;28;20322;-75
2023/02/09 05:10:54;;;;;;;31.63;12.97;;;;;;;;;;5039565;28;20033;-77
2023/02/09 05:13:23;;;;;;;30.73;12.87;;;;;;;;;;5028540;28;20288;-78
2023/02/09 05:15:49;;;;;;;25.60;13.30;;;;;;;;;;5042279;28;20264;-77
2023/02/09 05:18:15;;;;;;;24.57;12.13;;;;;;;;;;5040317;28;20276;-78
2023/02/09 05:20:42;;;;;;;24.95;13.02;;;;;;;;;;5045157;28;20272;-77
2023/02/09 05:23:08;;;;;;;31.47;14.23;;;;;;;;;;5026142;28;20033;-77
2023/02/09 05:25:35;;;;;;;28.57;13.13;;;;;;;;;;5039568;28;20361;-77
2023/02/09 05:28:01;;;;;;;26.67;12.63;;;;;;;;;;5037701;28;20298;-78
2023/02/09 05:30:27;;;;;;;30.25;13.20;;;;;;;;;;5041458;28;20378;-78
2023/02/09 05:32:54;;;;;;;24.00;12.47;;;;;;;;;;5039191;28;20021;-78
2023/02/09 05:35:20;;;;;;;24.63;13.25;;;;;;;;;;5040095;28;20720;-78
2023/02/09 05:37:46;;;;;;;28.77;13.13;;;;;;;;;;5025443;28;20065;-78
2023/02/09 05:40:12;;;;;;;27.50;13.03;;;;;;;;;;5039671;28;20339;-77
2023/02/09 05:42:38;;;;;;;34.90;12.63;;;;;;;;;;5025865;28;20905;-78
2023/02/09 05:45:04;;;;;;;29.48;13.43;;;;;;;;;;5040349;28;20293;-77
2023/02/09 05:47:30;;;;;;;26.13;14.17;;;;;;;;;;5025708;28;20073;-76
2023/02/09 05:49:56;;;;;;;26.73;13.07;;;;;;;;;;5044646;28;20755;-79
2023/02/09 05:52:24;;;;;;;32.80;14.47;;;;;;;;;;5020380;28;20087;-76
2023/02/09 05:54:53;;;;;;;31.30;13.27;;;;;;;;;;5022649;28;20120;-79
2023/02/09 05:57:19;;;;;;;32.05;14.60;;;;;;;;;;5021137;28;20033;-77
2023/02/09 05:59:45;;;;;;;27.53;13.27;;;;;;;;;;5038857;28;20327;-77
2023/02/09 06:02:11;;;;;;;29.63;13.93;;;;;;;;;;5040352;28;20101;-78
2023/02/09 06:04:39;;;;;;;30.90;13.97;;;;;;;;;;5040575;28;20025;-78
2023/02/09 06:07:07;;;;;;;28.88;14.70;;;;;;;;;;5038143;28;20298;-77
2023/02/09 06:09:33;;;;;;;27.63;12.80;;;;;;;;;;5041688;28;20600;-76
2023/02/09 06:11:59;;;;;;;34.20;15.50;;;;;;;;;;5025352;28;20036;-78
2023/02/09 06:14:25;;;;;;;33.20;13.60;;;;;;;;;;5025068;28;20298;-78
2023/02/09 06:16:51;;;;;;;27.00;14.33;;;;;;;;;;5028427;28;20044;-76
2023/02/09 06:19:19;;;;;;;27.90;14.17;;;;;;;;;;5041469;28;20628;-76
2023/02/09 06:21:45;;;;;;;34.00;13.82;;;;;;;;;;5040618;28;20033;-76
2023/02/09 06:24:11;;;;;;;32.05;14.13;;;;;;;;;;5027144;28;21296;-78
2023/02/09 06:26:37;;;;;;;28.52;14.82;;;;;;;;;;5022767;28;20033;-79
2023/02/09 06:29:03;;;;;;;29.40;14.13;;;;;;;;;;5038206;28;20053;-76
2023/02/09 06:31:30;;;;;;;29.30;14.20;;;;;;;;;;5040985;28;20041;-77
2023/02/09 06:33:56;;;;;;;31.50;14.35;;;;;;;;;;5041989;28;20288;-78
2023/02/09 06:36:22;;;;;;;31.25;14.45;;;;;;;;;;5024140;28;20044;-76
2023/02/09 06:38:48;;;;;;;36.47;14.13;;;;;;;;;;5045126;28;20899;-77
2023/02/09 06:41:14;;;;;;;32.17;15.63;;;;;;;;;;5032537;28;20029;-77
2023/02/09 06:43:40;;;;;;;37.97;16.60;;;;;;;;;;5028266;28;20467;-77
2023/02/09 06:46:07;;;;;;;32.07;15.90;;;;;;;;;;5043579;28;20437;-77
2023/02/09 06:48:33;;;;;;;37.33;16.48;;;;;;;;;;5042957;28;20282;-78
2023/02/09 06:50:59;;;;;;;34.00;14.77;;;;;;;;;;5042746;28;20327;-78
2023/02/09 06:53:25;;;;;;;31.20;15.30;;;;;;;;;;5043872;28;20073;-77
2023/02/09 06:55:51;;;;;;;30.53;13.93;;;;;;;;;;5041042;28;20120;-78
2023/02/09 06:58:17;;;;;;;27.20;14.30;;;;;;;;;;5043938;28;20036;-77
2023/02/09 07:00:43;;;;;;;39.80;15.57;;;;;;;;;;5027819;28;20798;-76
2023/02/09 07:03:11;;;;;;;29.42;14.82;;;;;;;;;;5025683;28;20018;-77
2023/02/09 07:05:37;;;;;;;37.10;16.55;;;;;;;;;;5041257;28;20025;-78
2023/02/09 07:08:03;;;;;;;33.50;16.27;;;;;;;;;;5041650;28;20379;-75
2023/02/09 07:10:29;;;;;;;29.53;14.47;;;;;;;;;;5042813;28;20069;-75
2023/02/09 07:12:57;;;;;;;32.10;15.47;;;;;;;;;;5041055;28;20314;-77
2023/02/09 07:15:23;;;;;;;28.50;13.93;;;;;;;;;;5041377;28;20715;-78
2023/02/09 07:17:52;;;;;;;32.43;15.63;;;;;;;;;;5042457;28;21180;-76
2023/02/09 07:20:18;;;;;;;26.37;14.90;;;;;;;;;;5025464;28;20269;-76
2023/02/09 07:22:44;;;;;;;32.50;15.13;;;;;;;;;;5042278;28;20272;-76
2023/02/09 07:25:10;;;;;;;40.37;15.73;;;;;;;;;;5026513;28;20624;-76
2023/02/09 07:27:36;;;;;;;33.57;16.80;;;;;;;;;;5042895;28;20265;-76
2023/02/09 07:30:02;;;;;;;34.57;15.93;;;;;;;;;;5025698;28;20272;-77
2023/02/09 07:32:32;;;;;;;34.57;15.33;;;;;;;;;;5041318;28;20272;-78
2023/02/09 07:34:58;;;;;;;27.47;14.37;;;;;;;;;;5042017;28;20334;-78
2023/02/09 07:37:24;;;;;;;33.50;16.33;;;;;;;;;;5024202;28;20640;-77
2023/02/09 07:39:50;;;;;;;30.60;15.03;;;;;;;;;;5044019;28;20280;-78
2023/02/09 07:42:16;;;;;;;42.97;15.83;;;;;;;;;;5043003;28;20414;-76
2023/02/09 07:44:42;;;;;;;33.10;16.50;;;;;;;;;;5026596;28;20372;-76
2023/02/09 07:47:08;;;;;;;27.63;14.20;;;;;;;;;;5042858;28;20025;-78
2023/02/09 07:49:34;;;;;;;34.40;15.43;;;;;;;;;;5042018;28;20286;-77
2023/02/09 07:52:00;;;;;;;33.17;15.77;;;;;;;;;;5025381;28;20287;-76
2023/02/09 07:54:26;;;;;;;36.77;16.07;;;;;;;;;;5042239;28;20352;-78
2023/02/09 07:56:54;;;;;;;34.40;15.50;;;;;;;;;;5025590;28;20025;-77
2023/02/09 07:59:22;;;;;;;33.00;14.47;;;;;;;;;;5026128;28;20371;-77
2023/02/09 08:01:50;;;;;;;27.10;14.63;;;;;;;;;;5040874;28;20338;-76
2023/02/09 08:04:16;;;;;;;31.97;15.53;;;;;;;;;;5025639;28;20379;-78
2023/02/09 08:06:44;;;;;;;34.27;15.07;;;;;;;;;;5042531;28;20356;-78
2023/02/09 08:09:10;;;;;;;35.87;16.50;;;;;;;;;;5027033;28;20290;-77
2023/02/09 08:11:40;;;;;;;34.13;16.50;;;;;;;;;;5041716;28;20312;-78
2023/02/09 08:14:08;;;;;;;30.33;15.90;;;;;;;;;;5041988;28;20664;-78
2023/02/09 08:16:35;;;;;;;30.13;14.87;;;;;;;;;;5043028;28;20338;-78
2023/02/09 08:19:22;;;;;;;27.73;15.33;;;;;;;;;;5027618;28;20319;-78
2023/02/09 08:21:49;;;;;;;30.17;15.00;;;;;;;;;;5024457;28;20356;-77
2023/02/09 08:24:16;;;;;;;30.03;14.77;;;;;;;;;;5027862;28;20269;-78
2023/02/09 08:26:42;;;;;;;33.07;15.73;;;;;;;;;;5026505;28;20304;-78
2023/02/09 08:29:08;;;;;;;30.40;15.17;;;;;;;;;;5041545;28;20366;-77
2023/02/09 08:31:34;;;;;;;30.30;15.43;;;;;;;;;;5041716;28;20280;-77
2023/02/09 08:34:00;;;;;;;33.13;16.37;;;;;;;;;;5024316;28;20299;-77
2023/02/09 08:36:26;;;;;;;29.27;15.70;;;;;;;;;;5025116;28;20033;-78
2023/02/09 08:38:55;;;;;;;35.57;17.17;;;;;;;;;;5041131;28;20033;-77
2023/02/09 08:41:20;;;;;;;32.73;16.70;;;;;;;;;;5042298;28;20025;-78
2023/02/09 08:43:48;;;;;;;32.17;15.40;;;;;;;;;;5052787;28;20718;-78
2023/02/09 08:46:14;;;;;;;30.33;14.80;;;;;;;;;;5069070;28;20060;-78
2023/02/09 08:48:41;;;;;;;45.87;24.73;;;;;;;;;;5031219;28;20313;-78
2023/02/09 08:51:08;;;;;;;43.40;25.23;;;;;;;;;;5050372;28;20292;-78
2023/02/09 08:53:34;;;;;;;45.77;26.43;;;;;;;;;;5034982;28;20263;-77
2023/02/09 08:56:00;;;;;;;36.27;17.80;;;;;;;;;;5031706;28;20283;-78
2023/02/09 08:58:26;;;;;;;33.30;16.03;;;;;;;;;;5044633;28;20337;-78
2023/02/09 09:00:55;;;;;;;32.17;15.93;;;;;;;;;;5044744;28;20117;-78
2023/02/09 09:03:26;;;;;;;30.37;15.87;;;;;;;;;;5038241;28;20291;-78
2023/02/09 09:05:56;;;;;;;33.00;15.60;;;;;;;;;;5035007;28;20260;-78
2023/02/09 09:08:22;;;;;;;32.90;15.80;;;;;;;;;;5035836;28;20271;-77
2023/02/09 09:10:50;;;;;;;30.07;14.83;;;;;;;;;;5049152;28;20609;-78
2023/02/09 09:13:16;;;;;;;31.53;16.37;;;;;;;;;;5038496;28;20025;-79
2023/02/09 09:15:44;;;;;;;27.60;15.33;;;;;;;;;;5036963;28;20260;-79
2023/02/09 09:18:12;;;;;;;46.70;16.73;;;;;;;;;;5035097;28;20787;-76
2023/02/09 09:20:38;;;;;;;28.90;15.80;;;;;;;;;;5035337;28;20276;-77
2023/02/09 09:23:06;;;;;;;26.83;14.63;;;;;;;;;;5034228;28;20299;-76
2023/02/09 09:25:35;;;;;;;32.80;15.97;;;;;;;;;;5034752;28;20661;-77
2023/02/09 09:28:01;;;;;;;35.23;16.50;;;;;;;;;;5055932;28;20355;-76
2023/02/09 09:30:27;;;;;;;30.70;15.93;;;;;;;;;;5040579;28;20308;-76
2023/02/09 09:32:54;;;;;;;38.17;17.43;;;;;;;;;;5043126;28;20033;-75
2023/02/09 09:35:22;;;;;;;27.40;15.50;;;;;;;;;;5067337;28;20373;-76
2023/02/09 09:37:48;;;;;;;37.43;17.73;;;;;;;;;;5038614;28;20787;-77
2023/02/09 09:40:20;;;;;;;27.20;16.03;;;;;;;;;;5033913;28;20276;-79
2023/02/09 09:42:51;;;;;;;33.42;16.42;;;;;;;;;;5017983;28;20302;-76
2023/02/09 09:45:18;;;;;;;35.93;15.37;;;;;;;;;;5035222;28;20033;-76
2023/02/09 09:47:44;;;;;;;28.13;15.00;;;;;;;;;;5051029;28;20267;-76
2023/02/09 09:50:21;;;;;;;30.73;15.70;;;;;;;;;;5034193;28;20276;-76
2023/02/09 09:52:50;;;;;;;32.37;16.60;;;;;;;;;;5050909;28;20355;-77
2023/02/09 09:55:21;;;;;;;27.10;15.37;;;;;;;;;;5050865;28;20273;-77
2023/02/09 09:57:48;;;;;;;29.33;14.87;;;;;;;;;;5034632;28;20752;-77
2023/02/09 10:00:17;;;;;;;30.77;15.20;;;;;;;;;;5031299;28;20287;-76
2023/02/09 10:02:43;;;;;;;35.57;16.10;;;;;;;;;;5062079;28;20275;-77
2023/02/09 10:05:12;;;;;;;28.07;15.10;;;;;;;;;;5048189;28;20463;-77
2023/02/09 10:07:39;;;;;;;29.97;16.33;;;;;;;;;;5034188;28;20264;-77
2023/02/09 10:10:13;;;;;;;27.33;14.87;;;;;;;;;;5023760;28;20264;-77
2023/02/09 10:12:52;;;;;;;30.43;15.90;;;;;;;;;;5033541;28;20292;-76
2023/02/09 10:15:28;;;;;;;27.83;15.23;;;;;;;;;;5045292;28;20692;-77
2023/02/09 10:17:55;;;;;;;30.63;15.43;;;;;;;;;;5032216;28;20299;-75
2023/02/09 10:20:40;;;;;;;32.40;15.77;;;;;;;;;;5037212;28;20276;-76
2023/02/09 10:23:05;;;;;;;34.40;15.90;;;;;;;;;;5025256;28;20410;-77
2023/02/09 10:25:37;;;;;;;26.63;14.60;;;;;;;;;;5023140;28;20374;-75
2023/02/09 10:28:05;;;;;;;28.27;15.20;;;;;;;;;;5039818;28;20029;-76
2023/02/09 10:30:33;;;;;;;26.77;14.67;;;;;;;;;;5040273;28;20767;-75
2023/02/09 10:33:01;;;;;;;26.77;14.27;;;;;;;;;;5024272;28;20283;-76
2023/02/09 10:35:29;;;;;;;32.90;15.77;;;;;;;;;;5040900;28;20383;-75
2023/02/09 10:38:00;;;;;;;33.50;16.77;;;;;;;;;;5040729;28;20292;-77
2023/02/09 10:40:31;;;;;;;27.53;14.40;;;;;;;;;;5040523;28;20280;-75
2023/02/09 10:42:58;;;;;;;25.47;13.93;;;;;;;;;;5039098;28;20041;-77
2023/02/09 10:45:28;;;;;;;25.93;14.63;;;;;;;;;;5022662;28;20033;-75
2023/02/09 10:47:58;;;;;;;26.37;14.87;;;;;;;;;;5039671;28;20029;-77
2023/02/09 10:50:27;;;;;;;26.03;13.27;;;;;;;;;;5040667;28;20033;-77
2023/02/09 10:52:54;;;;;;;25.67;14.43;;;;;;;;;;5024069;28;20053;-75
2023/02/09 10:55:26;;;;;;;28.53;15.47;;;;;;;;;;5038439;28;20127;-76
2023/02/09 10:58:02;;;;;;;27.07;15.30;;;;;;;;;;5039496;28;20026;-77
2023/02/09 11:00:31;;;;;;;27.97;15.07;;;;;;;;;;5040321;28;21808;-77
2023/02/09 11:03:02;;;;;;;28.40;15.00;;;;;;;;;;5040176;28;20022;-76
2023/02/09 11:05:32;;;;;;;30.13;16.30;;;;;;;;;;5024054;28;20021;-76
2023/02/09 11:07:58;;;;;;;25.13;14.50;;;;;;;;;;5023944;28;20091;-76
2023/02/09 11:10:25;;;;;;;30.70;14.00;;;;;;;;;;5023983;28;20112;-75
2023/02/09 11:12:51;;;;;;;28.33;15.60;;;;;;;;;;5042655;28;20025;-75
2023/02/09 11:15:21;;;;;;;23.07;12.87;;;;;;;;;;5040871;28;20482;-76
2023/02/09 11:17:54;;;;;;;24.97;13.47;;;;;;;;;;5039017;28;20203;-77
2023/02/09 11:20:32;;;;;;;25.90;14.30;;;;;;;;;;5040252;28;20061;-77
2023/02/09 11:23:01;;;;;;;34.30;17.30;;;;;;;;;;5041572;28;20026;-77
2023/02/09 11:25:27;;;;;;;26.43;14.20;;;;;;;;;;5025972;28;20354;-77
2023/02/09 11:28:12;;;;;;;25.90;14.33;;;;;;;;;;5044039;28;20044;-77
2023/02/09 11:30:40;;;;;;;29.30;14.60;;;;;;;;;;5042854;28;20372;-76
2023/02/09 11:33:06;;;;;;;23.60;14.27;;;;;;;;;;5027720;28;20037;-77
2023/02/09 11:35:39;;;;;;;26.97;14.40;;;;;;;;;;5044073;28;20029;-77
2023/02/09 11:38:08;;;;;;;23.63;12.83;;;;;;;;;;5042438;28;20036;-77
2023/02/09 11:40:41;;;;;;;26.70;14.40;;;;;;;;;;5030674;28;20461;-77
2023/02/09 11:43:10;;;;;;;27.38;15.13;;;;;;;;;;5042466;28;20072;-76
2023/02/09 11:45:44;;;;;;;28.77;14.20;;;;;;;;;;5044102;28;20033;-77
2023/02/09 11:48:10;;;;;;;24.93;13.40;;;;;;;;;;5044954;28;20354;-77
2023/02/09 11:50:39;;;;;;;24.57;13.67;;;;;;;;;;5027866;28;20078;-77
2023/02/09 11:53:10;;;;;;;26.23;13.50;;;;;;;;;;5041605;28;20037;-77
2023/02/09 11:55:38;;;;;;;24.03;14.50;;;;;;;;;;5028269;28;20037;-77
2023/02/09 11:58:15;;;;;;;26.23;13.33;;;;;;;;;;5050220;28;20054;-77
2023/02/09 12:00:49;;;;;;;26.83;13.83;;;;;;;;;;5043812;28;20084;-77
2023/02/09 12:03:15;;;;;;;27.10;13.53;;;;;;;;;;5044490;28;20057;-77
2023/02/09 12:05:42;;;;;;;26.00;15.10;;;;;;;;;;5029031;28;20438;-76
2023/02/09 12:08:16;;;;;;;20.93;12.00;;;;;;;;;;5031101;28;20030;-76
2023/02/09 12:10:54;;;;;;;21.97;12.43;;;;;;;;;;5044570;28;20040;-76
2023/02/09 12:13:39;;;;;;;25.37;13.00;;;;;;;;;;5028711;28;20098;-77
2023/02/09 12:16:11;;;;;;;25.80;13.10;;;;;;;;;;5042862;28;20065;-77
2023/02/09 12:18:42;;;;;;;25.55;13.43;;;;;;;;;;5043340;28;20049;-76
2023/02/09 12:21:08;;;;;;;26.40;13.63;;;;;;;;;;5026703;28;20034;-77
2023/02/09 12:23:35;;;;;;;26.90;14.13;;;;;;;;;;5027026;28;20041;-78
2023/02/09 12:26:13;;;;;;;23.67;12.73;;;;;;;;;;5042587;28;20029;-76
2023/02/09 12:28:41;;;;;;;24.27;12.73;;;;;;;;;;5041990;28;20033;-78
2023/02/09 12:31:11;;;;;;;21.93;13.07;;;;;;;;;;5043618;28;20029;-77
2023/02/09 12:33:57;;;;;;;23.10;12.47;;;;;;;;;;5044090;28;20429;-76
2023/02/09 12:36:31;;;;;;;21.97;12.57;;;;;;;;;;5037836;28;20129;-77
2023/02/09 12:38:57;;;;;;;23.80;13.03;;;;;;;;;;5027643;28;20029;-77
2023/02/09 12:41:27;;;;;;;21.77;11.63;;;;;;;;;;5028379;28;20756;-77
2023/02/09 12:44:17;;;;;;;24.20;13.07;;;;;;;;;;5046615;28;20041;-78
2023/02/09 12:46:46;;;;;;;28.30;14.10;;;;;;;;;;5026570;28;20037;-77
2023/02/09 12:49:19;;;;;;;29.03;13.27;;;;;;;;;;5026830;28;20132;-78
2023/02/09 12:51:45;;;;;;;20.83;12.03;;;;;;;;;;5040690;28;20064;-78
2023/02/09 12:54:26;;;;;;;20.83;10.97;;;;;;;;;;5025608;28;20169;-76
2023/02/09 12:56:52;;;;;;;18.93;11.97;;;;;;;;;;5042737;28;20053;-77
2023/02/09 12:59:20;;;;;;;25.47;11.83;;;;;;;;;;5042201;28;20076;-77
2023/02/09 13:02:05;;;;;;;24.57;11.63;;;;;;;;;;5040828;28;20026;-78
2023/02/09 13:04:33;;;;;;;21.80;11.73;;;;;;;;;;5045526;28;20025;-77
2023/02/09 13:07:00;;;;;;;21.83;11.50;;;;;;;;;;5026140;28;20040;-78
2023/02/09 13:09:29;;;;;;;18.27;10.60;;;;;;;;;;5026805;28;20029;-77
2023/02/09 13:12:03;;;;;;;20.70;11.20;;;;;;;;;;5043556;28;20038;-78
2023/02/09 13:14:30;;;;;;;23.17;10.93;;;;;;;;;;5046245;28;20039;-77
2023/02/09 13:17:02;;;;;;;24.60;11.80;;;;;;;;;;5041163;28;20029;-76
2023/02/09 13:19:43;;;;;;;20.63;11.30;;;;;;;;;;5043360;28;20038;-77
2023/02/09 13:22:21;;;;;;;20.40;9.97;;;;;;;;;;5040840;28;20041;-78
2023/02/09 13:24:51;;;;;;;18.57;10.27;;;;;;;;;;5026923;28;20029;-76
2023/02/09 13:27:19;;;;;;;21.43;11.13;;;;;;;;;;5041546;28;20029;-77
2023/02/09 13:29:52;;;;;;;16.67;9.70;;;;;;;;;;5025025;28;20087;-76
2023/02/09 13:32:19;;;;;;;18.13;10.63;;;;;;;;;;5040704;28;20029;-76
2023/02/09 13:34:45;;;;;;;18.17;10.20;;;;;;;;;;5023167;28;20105;-77
2023/02/09 13:37:20;;;;;;;20.10;11.10;;;;;;;;;;5040530;28;20164;-78
2023/02/09 13:39:52;;;;;;;18.93;10.77;;;;;;;;;;5039631;28;20063;-78
2023/02/09 13:42:20;;;;;;;23.65;12.20;;;;;;;;;;5040832;28;20331;-78
2023/02/09 13:44:49;;;;;;;16.90;10.60;;;;;;;;;;5042626;28;20171;-78
2023/02/09 13:47:16;;;;;;;19.93;10.67;;;;;;;;;;5039637;28;20029;-76
2023/02/09 13:49:42;;;;;;;19.93;10.37;;;;;;;;;;5038984;28;20053;-76
2023/02/09 13:52:08;;;;;;;18.20;10.47;;;;;;;;;;5041006;28;20026;-78
2023/02/09 13:54:34;;;;;;;19.70;11.33;;;;;;;;;;5024454;28;20038;-77
2023/02/09 13:57:00;;;;;;;17.10;9.57;;;;;;;;;;5038948;28;20029;-77
2023/02/09 13:59:26;;;;;;;20.33;10.47;;;;;;;;;;5026537;28;20036;-77
2023/02/09 14:01:54;;;;;;;18.33;10.13;;;;;;;;;;5040535;28;20353;-78
2023/02/09 14:04:25;;;;;;;16.20;9.30;;;;;;;;;;5040342;28;20037;-78
2023/02/09 14:07:08;;;;;;;17.17;10.13;;;;;;;;;;5038615;28;20041;-78
2023/02/09 14:09:44;;;;;;;22.42;10.77;;;;;;;;;;5025405;28;20122;-77
2023/02/09 14:12:13;;;;;;;17.67;10.40;;;;;;;;;;5040271;28;20033;-77
2023/02/09 14:17:28;;;;;;;16.60;10.33;;;;;;;;;;5022513;28;20040;-77
2023/02/09 14:19:54;;;;;;;20.70;10.10;;;;;;;;;;5040664;28;20053;-77
2023/02/09 14:22:37;;;;;;;19.50;11.37;;;;;;;;;;5025980;28;20036;-78
2023/02/09 14:25:15;;;;;;;20.15;10.88;;;;;;;;;;5023411;28;20048;-77
2023/02/09 14:27:46;;;;;;;17.17;9.97;;;;;;;;;;5040418;28;20033;-78
2023/02/09 14:30:14;;;;;;;18.03;10.30;;;;;;;;;;5038456;28;20129;-78
2023/02/09 14:32:44;;;;;;;18.37;10.27;;;;;;;;;;5042512;28;20087;-78
2023/02/09 14:35:19;;;;;;;18.07;10.30;;;;;;;;;;5039485;28;20032;-78
2023/02/09 14:37:45;;;;;;;23.10;10.00;;;;;;;;;;5040501;28;20462;-78
2023/02/09 14:40:17;;;;;;;18.77;10.30;;;;;;;;;;5040528;28;20060;-77